sensor_id;sensor_type;location;lat;lon;timestamp;P1;durP1;ratioP1;P2;durP2;ratioP2
14799;SDS011;7491;57.750;11.970;2022-07-23T00:00:46;10.45;;;4.10;;
14799;SDS011;7491;57.750;11.970;2022-07-23T00:03:14;8.45;;;4.57;;
14799;SDS011;7491;57.750;11.970;2022-07-23T00:05:41;11.60;;;4.25;;
14799;SDS011;7491;57.750;11.970;2022-07-23T00:08:08;9.48;;;4.20;;
14799;SDS011;7491;57.750;11.970;2022-07-23T00:10:34;9.32;;;3.97;;
14799;SDS011;7491;57.750;11.970;2022-07-23T00:13:01;9.00;;;4.15;;
14799;SDS011;7491;57.750;11.970;2022-07-23T00:15:28;6.28;;;3.53;;
14799;SDS011;7491;57.750;11.970;2022-07-23T00:17:54;7.00;;;3.10;;
14799;SDS011;7491;57.750;11.970;2022-07-23T00:20:22;5.72;;;3.03;;
14799;SDS011;7491;57.750;11.970;2022-07-23T00:22:49;7.25;;;3.00;;
14799;SDS011;7491;57.750;11.970;2022-07-23T00:25:17;8.25;;;2.92;;
14799;SDS011;7491;57.750;11.970;2022-07-23T00:27:44;8.00;;;2.70;;
14799;SDS011;7491;57.750;11.970;2022-07-23T00:30:12;7.43;;;2.88;;
14799;SDS011;7491;57.750;11.970;2022-07-23T00:32:46;6.60;;;2.50;;
14799;SDS011;7491;57.750;11.970;2022-07-23T00:35:13;6.57;;;2.95;;
14799;SDS011;7491;57.750;11.970;2022-07-23T00:37:41;5.60;;;2.30;;
14799;SDS011;7491;57.750;11.970;2022-07-23T00:40:08;5.93;;;2.42;;
14799;SDS011;7491;57.750;11.970;2022-07-23T00:42:36;4.22;;;2.28;;
14799;SDS011;7491;57.750;11.970;2022-07-23T00:45:03;5.78;;;2.20;;
14799;SDS011;7491;57.750;11.970;2022-07-23T00:47:30;2.78;;;1.80;;
14799;SDS011;7491;57.750;11.970;2022-07-23T00:49:56;4.72;;;2.15;;
14799;SDS011;7491;57.750;11.970;2022-07-23T00:52:23;3.03;;;2.05;;
14799;SDS011;7491;57.750;11.970;2022-07-23T00:54:51;2.95;;;1.80;;
14799;SDS011;7491;57.750;11.970;2022-07-23T00:57:18;2.17;;;1.50;;
14799;SDS011;7491;57.750;11.970;2022-07-23T00:59:44;3.78;;;1.60;;
14799;SDS011;7491;57.750;11.970;2022-07-23T01:02:11;2.25;;;1.83;;
14799;SDS011;7491;57.750;11.970;2022-07-23T01:04:37;1.50;;;1.40;;
14799;SDS011;7491;57.750;11.970;2022-07-23T01:07:04;2.35;;;1.15;;
14799;SDS011;7491;57.750;11.970;2022-07-23T01:09:31;1.50;;;1.30;;
14799;SDS011;7491;57.750;11.970;2022-07-23T01:11:59;3.13;;;1.40;;
14799;SDS011;7491;57.750;11.970;2022-07-23T01:14:29;2.10;;;1.45;;
14799;SDS011;7491;57.750;11.970;2022-07-23T01:16:55;1.63;;;1.15;;
14799;SDS011;7491;57.750;11.970;2022-07-23T01:19:22;2.50;;;1.27;;
14799;SDS011;7491;57.750;11.970;2022-07-23T01:21:49;5.18;;;1.05;;
14799;SDS011;7491;57.750;11.970;2022-07-23T01:24:18;2.40;;;0.90;;
14799;SDS011;7491;57.750;11.970;2022-07-23T01:26:45;1.00;;;0.90;;
14799;SDS011;7491;57.750;11.970;2022-07-23T01:29:16;2.72;;;1.10;;
14799;SDS011;7491;57.750;11.970;2022-07-23T01:31:48;2.33;;;0.90;;
14799;SDS011;7491;57.750;11.970;2022-07-23T01:34:17;1.98;;;0.85;;
14799;SDS011;7491;57.750;11.970;2022-07-23T01:36:46;0.77;;;0.77;;
14799;SDS011;7491;57.750;11.970;2022-07-23T01:39:19;1.63;;;0.80;;
14799;SDS011;7491;57.750;11.970;2022-07-23T01:41:46;1.00;;;0.77;;
14799;SDS011;7491;57.750;11.970;2022-07-23T01:44:12;1.25;;;0.88;;
14799;SDS011;7491;57.750;11.970;2022-07-23T01:46:39;1.13;;;0.70;;
14799;SDS011;7491;57.750;11.970;2022-07-23T01:49:06;2.60;;;0.70;;
14799;SDS011;7491;57.750;11.970;2022-07-23T01:51:34;0.70;;;0.70;;
14799;SDS011;7491;57.750;11.970;2022-07-23T01:54:01;1.42;;;0.70;;
14799;SDS011;7491;57.750;11.970;2022-07-23T01:56:29;2.03;;;0.85;;
14799;SDS011;7491;57.750;11.970;2022-07-23T01:58:56;1.00;;;0.80;;
14799;SDS011;7491;57.750;11.970;2022-07-23T02:01:23;0.80;;;0.80;;
14799;SDS011;7491;57.750;11.970;2022-07-23T02:03:50;1.52;;;0.68;;
14799;SDS011;7491;57.750;11.970;2022-07-23T02:06:16;3.00;;;1.10;;
14799;SDS011;7491;57.750;11.970;2022-07-23T02:08:43;1.15;;;0.80;;
14799;SDS011;7491;57.750;11.970;2022-07-23T02:11:12;1.65;;;1.10;;
14799;SDS011;7491;57.750;11.970;2022-07-23T02:13:40;1.30;;;0.88;;
14799;SDS011;7491;57.750;11.970;2022-07-23T02:16:07;1.38;;;0.90;;
14799;SDS011;7491;57.750;11.970;2022-07-23T02:18:33;1.10;;;1.00;;
14799;SDS011;7491;57.750;11.970;2022-07-23T02:21:00;1.17;;;0.88;;
14799;SDS011;7491;57.750;11.970;2022-07-23T02:23:29;0.88;;;0.88;;
14799;SDS011;7491;57.750;11.970;2022-07-23T02:25:59;1.20;;;1.10;;
14799;SDS011;7491;57.750;11.970;2022-07-23T02:28:25;0.80;;;0.80;;
14799;SDS011;7491;57.750;11.970;2022-07-23T02:30:56;2.40;;;1.00;;
14799;SDS011;7491;57.750;11.970;2022-07-23T02:33:23;1.80;;;1.10;;
14799;SDS011;7491;57.750;11.970;2022-07-23T02:35:50;1.10;;;0.93;;
14799;SDS011;7491;57.750;11.970;2022-07-23T02:38:19;1.77;;;1.10;;
14799;SDS011;7491;57.750;11.970;2022-07-23T02:40:46;0.90;;;0.90;;
14799;SDS011;7491;57.750;11.970;2022-07-23T02:43:13;0.90;;;0.90;;
14799;SDS011;7491;57.750;11.970;2022-07-23T02:45:39;2.80;;;0.93;;
14799;SDS011;7491;57.750;11.970;2022-07-23T02:48:07;1.15;;;1.10;;
14799;SDS011;7491;57.750;11.970;2022-07-23T02:50:34;1.20;;;1.10;;
14799;SDS011;7491;57.750;11.970;2022-07-23T02:53:00;1.60;;;1.00;;
14799;SDS011;7491;57.750;11.970;2022-07-23T02:55:27;0.82;;;0.82;;
14799;SDS011;7491;57.750;11.970;2022-07-23T02:57:54;1.00;;;1.00;;
14799;SDS011;7491;57.750;11.970;2022-07-23T03:00:20;1.60;;;1.13;;
14799;SDS011;7491;57.750;11.970;2022-07-23T03:02:47;0.82;;;0.82;;
14799;SDS011;7491;57.750;11.970;2022-07-23T03:05:15;1.15;;;1.05;;
14799;SDS011;7491;57.750;11.970;2022-07-23T03:07:41;1.08;;;1.08;;
14799;SDS011;7491;57.750;11.970;2022-07-23T03:10:08;1.10;;;1.10;;
14799;SDS011;7491;57.750;11.970;2022-07-23T03:12:35;3.63;;;1.08;;
14799;SDS011;7491;57.750;11.970;2022-07-23T03:15:01;1.00;;;1.00;;
14799;SDS011;7491;57.750;11.970;2022-07-23T03:17:28;2.33;;;1.05;;
14799;SDS011;7491;57.750;11.970;2022-07-23T03:19:55;1.17;;;1.10;;
14799;SDS011;7491;57.750;11.970;2022-07-23T03:22:23;1.00;;;1.00;;
14799;SDS011;7491;57.750;11.970;2022-07-23T03:24:49;1.17;;;1.08;;
14799;SDS011;7491;57.750;11.970;2022-07-23T03:27:22;1.10;;;1.10;;
14799;SDS011;7491;57.750;11.970;2022-07-23T03:29:50;1.23;;;1.10;;
14799;SDS011;7491;57.750;11.970;2022-07-23T03:32:17;1.35;;;1.25;;
14799;SDS011;7491;57.750;11.970;2022-07-23T03:34:43;1.77;;;1.45;;
14799;SDS011;7491;57.750;11.970;2022-07-23T03:37:10;1.17;;;1.00;;
14799;SDS011;7491;57.750;11.970;2022-07-23T03:39:38;1.75;;;1.48;;
14799;SDS011;7491;57.750;11.970;2022-07-23T03:42:05;1.20;;;1.10;;
14799;SDS011;7491;57.750;11.970;2022-07-23T03:44:32;1.25;;;1.15;;
14799;SDS011;7491;57.750;11.970;2022-07-23T03:46:58;2.17;;;1.10;;
14799;SDS011;7491;57.750;11.970;2022-07-23T03:49:25;1.13;;;1.10;;
14799;SDS011;7491;57.750;11.970;2022-07-23T03:51:52;1.33;;;1.20;;
14799;SDS011;7491;57.750;11.970;2022-07-23T03:54:18;1.20;;;1.20;;
14799;SDS011;7491;57.750;11.970;2022-07-23T03:56:46;1.25;;;1.15;;
14799;SDS011;7491;57.750;11.970;2022-07-23T03:59:13;1.15;;;1.10;;
14799;SDS011;7491;57.750;11.970;2022-07-23T04:01:40;1.10;;;1.00;;
14799;SDS011;7491;57.750;11.970;2022-07-23T04:04:06;1.30;;;1.20;;
14799;SDS011;7491;57.750;11.970;2022-07-23T04:06:33;1.05;;;1.05;;
14799;SDS011;7491;57.750;11.970;2022-07-23T04:09:00;2.75;;;1.25;;
14799;SDS011;7491;57.750;11.970;2022-07-23T04:11:27;1.15;;;0.90;;
14799;SDS011;7491;57.750;11.970;2022-07-23T04:13:54;5.50;;;1.30;;
14799;SDS011;7491;57.750;11.970;2022-07-23T04:16:21;1.35;;;1.25;;
14799;SDS011;7491;57.750;11.970;2022-07-23T04:18:48;1.10;;;1.10;;
14799;SDS011;7491;57.750;11.970;2022-07-23T04:21:14;1.13;;;1.00;;
14799;SDS011;7491;57.750;11.970;2022-07-23T04:23:41;1.30;;;1.23;;
14799;SDS011;7491;57.750;11.970;2022-07-23T04:26:07;1.90;;;1.23;;
14799;SDS011;7491;57.750;11.970;2022-07-23T04:28:34;1.65;;;1.20;;
14799;SDS011;7491;57.750;11.970;2022-07-23T04:31:02;1.30;;;1.20;;
14799;SDS011;7491;57.750;11.970;2022-07-23T04:33:28;1.58;;;1.48;;
14799;SDS011;7491;57.750;11.970;2022-07-23T04:35:55;1.45;;;1.13;;
14799;SDS011;7491;57.750;11.970;2022-07-23T04:38:22;1.35;;;1.25;;
14799;SDS011;7491;57.750;11.970;2022-07-23T04:40:48;2.40;;;1.55;;
14799;SDS011;7491;57.750;11.970;2022-07-23T04:43:15;2.13;;;1.92;;
14799;SDS011;7491;57.750;11.970;2022-07-23T04:45:41;3.35;;;1.40;;
14799;SDS011;7491;57.750;11.970;2022-07-23T04:48:09;1.98;;;1.35;;
14799;SDS011;7491;57.750;11.970;2022-07-23T04:50:36;3.05;;;1.83;;
14799;SDS011;7491;57.750;11.970;2022-07-23T04:53:03;1.33;;;1.17;;
14799;SDS011;7491;57.750;11.970;2022-07-23T04:55:29;1.20;;;1.10;;
14799;SDS011;7491;57.750;11.970;2022-07-23T04:57:56;2.55;;;1.27;;
14799;SDS011;7491;57.750;11.970;2022-07-23T05:00:22;4.00;;;1.30;;
14799;SDS011;7491;57.750;11.970;2022-07-23T05:02:49;1.20;;;1.10;;
14799;SDS011;7491;57.750;11.970;2022-07-23T05:05:17;6.82;;;1.38;;
14799;SDS011;7491;57.750;11.970;2022-07-23T05:07:44;1.83;;;1.40;;
14799;SDS011;7491;57.750;11.970;2022-07-23T05:10:10;2.42;;;1.15;;
14799;SDS011;7491;57.750;11.970;2022-07-23T05:12:37;1.65;;;1.10;;
14799;SDS011;7491;57.750;11.970;2022-07-23T05:15:04;2.38;;;1.60;;
14799;SDS011;7491;57.750;11.970;2022-07-23T05:17:31;2.08;;;1.08;;
14799;SDS011;7491;57.750;11.970;2022-07-23T05:19:57;1.85;;;1.00;;
14799;SDS011;7491;57.750;11.970;2022-07-23T05:22:25;0.90;;;0.90;;
14799;SDS011;7491;57.750;11.970;2022-07-23T05:24:52;0.70;;;0.70;;
14799;SDS011;7491;57.750;11.970;2022-07-23T05:27:19;0.95;;;0.85;;
14799;SDS011;7491;57.750;11.970;2022-07-23T05:29:45;2.40;;;0.90;;
14799;SDS011;7491;57.750;11.970;2022-07-23T05:32:12;2.15;;;1.13;;
14799;SDS011;7491;57.750;11.970;2022-07-23T05:34:38;0.95;;;0.77;;
14799;SDS011;7491;57.750;11.970;2022-07-23T05:37:05;1.08;;;0.82;;
14799;SDS011;7491;57.750;11.970;2022-07-23T05:39:33;2.35;;;0.80;;
14799;SDS011;7491;57.750;11.970;2022-07-23T05:41:59;1.33;;;1.00;;
14799;SDS011;7491;57.750;11.970;2022-07-23T05:44:26;0.70;;;0.70;;
14799;SDS011;7491;57.750;11.970;2022-07-23T05:46:53;0.60;;;0.60;;
14799;SDS011;7491;57.750;11.970;2022-07-23T05:49:19;1.00;;;0.80;;
14799;SDS011;7491;57.750;11.970;2022-07-23T05:51:46;0.50;;;0.50;;
14799;SDS011;7491;57.750;11.970;2022-07-23T05:54:13;0.63;;;0.63;;
14799;SDS011;7491;57.750;11.970;2022-07-23T05:56:41;1.35;;;0.70;;
14799;SDS011;7491;57.750;11.970;2022-07-23T05:59:08;0.70;;;0.70;;
14799;SDS011;7491;57.750;11.970;2022-07-23T06:01:37;0.80;;;0.80;;
14799;SDS011;7491;57.750;11.970;2022-07-23T06:04:03;0.73;;;0.73;;
14799;SDS011;7491;57.750;11.970;2022-07-23T06:06:30;0.60;;;0.60;;
14799;SDS011;7491;57.750;11.970;2022-07-23T06:08:56;1.10;;;0.80;;
14799;SDS011;7491;57.750;11.970;2022-07-23T06:11:23;0.95;;;0.95;;
14799;SDS011;7491;57.750;11.970;2022-07-23T06:13:51;1.02;;;0.90;;
14799;SDS011;7491;57.750;11.970;2022-07-23T06:16:18;1.05;;;0.70;;
14799;SDS011;7491;57.750;11.970;2022-07-23T06:18:44;0.70;;;0.60;;
14799;SDS011;7491;57.750;11.970;2022-07-23T06:21:11;1.50;;;0.70;;
14799;SDS011;7491;57.750;11.970;2022-07-23T06:23:37;0.70;;;0.70;;
14799;SDS011;7491;57.750;11.970;2022-07-23T06:26:04;0.60;;;0.50;;
14799;SDS011;7491;57.750;11.970;2022-07-23T06:28:31;1.13;;;0.63;;
14799;SDS011;7491;57.750;11.970;2022-07-23T06:30:59;0.70;;;0.70;;
14799;SDS011;7491;57.750;11.970;2022-07-23T06:33:25;0.70;;;0.70;;
14799;SDS011;7491;57.750;11.970;2022-07-23T06:35:52;1.95;;;0.98;;
14799;SDS011;7491;57.750;11.970;2022-07-23T06:38:18;1.05;;;0.95;;
14799;SDS011;7491;57.750;11.970;2022-07-23T06:40:45;0.80;;;0.80;;
14799;SDS011;7491;57.750;11.970;2022-07-23T06:43:12;0.60;;;0.55;;
14799;SDS011;7491;57.750;11.970;2022-07-23T06:45:38;0.98;;;0.88;;
14799;SDS011;7491;57.750;11.970;2022-07-23T06:48:06;1.58;;;0.60;;
14799;SDS011;7491;57.750;11.970;2022-07-23T06:50:33;0.90;;;0.90;;
14799;SDS011;7491;57.750;11.970;2022-07-23T06:53:00;1.00;;;1.00;;
14799;SDS011;7491;57.750;11.970;2022-07-23T06:55:27;1.13;;;0.85;;
14799;SDS011;7491;57.750;11.970;2022-07-23T06:57:53;1.45;;;0.90;;
14799;SDS011;7491;57.750;11.970;2022-07-23T07:00:20;0.98;;;0.88;;
14799;SDS011;7491;57.750;11.970;2022-07-23T07:02:47;3.33;;;0.70;;
14799;SDS011;7491;57.750;11.970;2022-07-23T07:05:15;1.17;;;0.82;;
14799;SDS011;7491;57.750;11.970;2022-07-23T07:07:41;0.80;;;0.80;;
14799;SDS011;7491;57.750;11.970;2022-07-23T07:10:08;1.33;;;1.00;;
14799;SDS011;7491;57.750;11.970;2022-07-23T07:12:35;0.90;;;0.80;;
14799;SDS011;7491;57.750;11.970;2022-07-23T07:15:02;1.40;;;0.90;;
14799;SDS011;7491;57.750;11.970;2022-07-23T07:17:29;2.80;;;0.70;;
14799;SDS011;7491;57.750;11.970;2022-07-23T07:19:56;1.48;;;0.93;;
14799;SDS011;7491;57.750;11.970;2022-07-23T07:22:24;0.73;;;0.70;;
14799;SDS011;7491;57.750;11.970;2022-07-23T07:24:50;2.53;;;0.80;;
14799;SDS011;7491;57.750;11.970;2022-07-23T07:27:17;0.90;;;0.90;;
14799;SDS011;7491;57.750;11.970;2022-07-23T07:29:43;1.88;;;0.82;;
14799;SDS011;7491;57.750;11.970;2022-07-23T07:32:10;4.47;;;0.95;;
14799;SDS011;7491;57.750;11.970;2022-07-23T07:34:37;0.73;;;0.73;;
14799;SDS011;7491;57.750;11.970;2022-07-23T07:37:03;1.10;;;0.77;;
14799;SDS011;7491;57.750;11.970;2022-07-23T07:39:31;1.95;;;0.75;;
14799;SDS011;7491;57.750;11.970;2022-07-23T07:41:58;2.03;;;0.90;;
14799;SDS011;7491;57.750;11.970;2022-07-23T07:44:24;0.90;;;0.90;;
14799;SDS011;7491;57.750;11.970;2022-07-23T07:46:51;0.73;;;0.73;;
14799;SDS011;7491;57.750;11.970;2022-07-23T07:49:18;0.77;;;0.77;;
14799;SDS011;7491;57.750;11.970;2022-07-23T07:51:45;2.10;;;0.70;;
14799;SDS011;7491;57.750;11.970;2022-07-23T07:54:11;0.70;;;0.70;;
14799;SDS011;7491;57.750;11.970;2022-07-23T07:56:39;0.82;;;0.82;;
14799;SDS011;7491;57.750;11.970;2022-07-23T07:59:06;0.80;;;0.80;;
14799;SDS011;7491;57.750;11.970;2022-07-23T08:01:33;0.88;;;0.88;;
14799;SDS011;7491;57.750;11.970;2022-07-23T08:04:00;0.80;;;0.80;;
14799;SDS011;7491;57.750;11.970;2022-07-23T08:06:26;0.68;;;0.68;;
14799;SDS011;7491;57.750;11.970;2022-07-23T08:08:53;0.60;;;0.60;;
14799;SDS011;7491;57.750;11.970;2022-07-23T08:11:19;0.77;;;0.70;;
14799;SDS011;7491;57.750;11.970;2022-07-23T08:13:47;0.90;;;0.65;;
14799;SDS011;7491;57.750;11.970;2022-07-23T08:16:14;0.60;;;0.60;;
14799;SDS011;7491;57.750;11.970;2022-07-23T08:18:41;0.65;;;0.65;;
14799;SDS011;7491;57.750;11.970;2022-07-23T08:21:07;0.65;;;0.65;;
14799;SDS011;7491;57.750;11.970;2022-07-23T08:23:34;1.75;;;0.73;;
14799;SDS011;7491;57.750;11.970;2022-07-23T08:26:01;0.98;;;0.70;;
14799;SDS011;7491;57.750;11.970;2022-07-23T08:28:27;0.70;;;0.70;;
14799;SDS011;7491;57.750;11.970;2022-07-23T08:30:59;1.27;;;0.70;;
14799;SDS011;7491;57.750;11.970;2022-07-23T08:33:26;1.77;;;1.10;;
14799;SDS011;7491;57.750;11.970;2022-07-23T08:35:52;2.58;;;0.90;;
14799;SDS011;7491;57.750;11.970;2022-07-23T08:38:20;1.33;;;0.90;;
14799;SDS011;7491;57.750;11.970;2022-07-23T08:40:47;1.40;;;0.80;;
14799;SDS011;7491;57.750;11.970;2022-07-23T08:43:15;1.75;;;0.93;;
14799;SDS011;7491;57.750;11.970;2022-07-23T08:45:43;0.70;;;0.70;;
14799;SDS011;7491;57.750;11.970;2022-07-23T08:48:14;3.88;;;1.85;;
14799;SDS011;7491;57.750;11.970;2022-07-23T08:50:42;2.53;;;0.90;;
14799;SDS011;7491;57.750;11.970;2022-07-23T08:53:10;1.50;;;1.23;;
14799;SDS011;7491;57.750;11.970;2022-07-23T08:55:37;5.53;;;1.80;;
14799;SDS011;7491;57.750;11.970;2022-07-23T08:58:04;1.52;;;0.80;;
14799;SDS011;7491;57.750;11.970;2022-07-23T09:00:30;2.92;;;0.90;;
14799;SDS011;7491;57.750;11.970;2022-07-23T09:02:58;0.77;;;0.77;;
14799;SDS011;7491;57.750;11.970;2022-07-23T09:05:26;2.40;;;0.88;;
14799;SDS011;7491;57.750;11.970;2022-07-23T09:10:48;0.70;;;0.70;;
14799;SDS011;7491;57.750;11.970;2022-07-23T09:13:25;0.77;;;0.60;;
14799;SDS011;7491;57.750;11.970;2022-07-23T09:15:53;1.67;;;0.75;;
14799;SDS011;7491;57.750;11.970;2022-07-23T09:18:27;0.63;;;0.63;;
14799;SDS011;7491;57.750;11.970;2022-07-23T09:21:06;0.90;;;0.90;;
14799;SDS011;7491;57.750;11.970;2022-07-23T09:23:37;0.80;;;0.70;;
14799;SDS011;7491;57.750;11.970;2022-07-23T09:26:16;1.55;;;0.77;;
14799;SDS011;7491;57.750;11.970;2022-07-23T09:28:52;0.52;;;0.50;;
14799;SDS011;7491;57.750;11.970;2022-07-23T09:31:21;1.00;;;0.80;;
14799;SDS011;7491;57.750;11.970;2022-07-23T09:33:48;0.60;;;0.60;;
14799;SDS011;7491;57.750;11.970;2022-07-23T09:36:16;1.75;;;0.68;;
14799;SDS011;7491;57.750;11.970;2022-07-23T09:38:53;0.63;;;0.60;;
14799;SDS011;7491;57.750;11.970;2022-07-23T09:41:20;0.65;;;0.50;;
14799;SDS011;7491;57.750;11.970;2022-07-23T09:43:52;1.45;;;0.40;;
14799;SDS011;7491;57.750;11.970;2022-07-23T09:46:22;1.08;;;0.57;;
14799;SDS011;7491;57.750;11.970;2022-07-23T09:48:49;1.27;;;0.50;;
14799;SDS011;7491;57.750;11.970;2022-07-23T09:51:19;2.30;;;0.70;;
14799;SDS011;7491;57.750;11.970;2022-07-23T09:54:00;3.35;;;0.80;;
14799;SDS011;7491;57.750;11.970;2022-07-23T09:56:27;6.38;;;0.60;;
14799;SDS011;7491;57.750;11.970;2022-07-23T09:58:54;0.98;;;0.63;;
14799;SDS011;7491;57.750;11.970;2022-07-23T10:01:29;0.93;;;0.63;;
14799;SDS011;7491;57.750;11.970;2022-07-23T10:03:57;1.75;;;0.60;;
14799;SDS011;7491;57.750;11.970;2022-07-23T10:06:26;0.50;;;0.50;;
14799;SDS011;7491;57.750;11.970;2022-07-23T10:08:54;0.63;;;0.50;;
14799;SDS011;7491;57.750;11.970;2022-07-23T10:11:24;2.60;;;0.50;;
14799;SDS011;7491;57.750;11.970;2022-07-23T10:13:54;1.75;;;0.70;;
14799;SDS011;7491;57.750;11.970;2022-07-23T10:16:22;1.20;;;0.70;;
14799;SDS011;7491;57.750;11.970;2022-07-23T10:18:50;1.83;;;0.57;;
14799;SDS011;7491;57.750;11.970;2022-07-23T10:21:19;1.08;;;0.60;;
14799;SDS011;7491;57.750;11.970;2022-07-23T10:24:01;0.88;;;0.60;;
14799;SDS011;7491;57.750;11.970;2022-07-23T10:26:37;0.55;;;0.55;;
14799;SDS011;7491;57.750;11.970;2022-07-23T10:29:12;1.55;;;0.70;;
14799;SDS011;7491;57.750;11.970;2022-07-23T10:31:50;3.85;;;0.60;;
14799;SDS011;7491;57.750;11.970;2022-07-23T10:34:24;1.05;;;0.50;;
14799;SDS011;7491;57.750;11.970;2022-07-23T10:36:57;0.98;;;0.50;;
14799;SDS011;7491;57.750;11.970;2022-07-23T10:39:33;0.50;;;0.40;;
14799;SDS011;7491;57.750;11.970;2022-07-23T10:42:08;0.88;;;0.60;;
14799;SDS011;7491;57.750;11.970;2022-07-23T10:44:39;0.68;;;0.60;;
14799;SDS011;7491;57.750;11.970;2022-07-23T10:47:08;0.85;;;0.60;;
14799;SDS011;7491;57.750;11.970;2022-07-23T10:55:46;0.70;;;0.70;;
14799;SDS011;7491;57.750;11.970;2022-07-23T10:58:23;0.75;;;0.40;;
14799;SDS011;7491;57.750;11.970;2022-07-23T11:04:01;0.77;;;0.63;;
14799;SDS011;7491;57.750;11.970;2022-07-23T11:09:38;0.90;;;0.50;;
14799;SDS011;7491;57.750;11.970;2022-07-23T11:14:58;0.55;;;0.55;;
14799;SDS011;7491;57.750;11.970;2022-07-23T11:17:26;0.80;;;0.80;;
14799;SDS011;7491;57.750;11.970;2022-07-23T11:20:13;0.57;;;0.47;;
14799;SDS011;7491;57.750;11.970;2022-07-23T11:22:52;1.60;;;0.90;;
14799;SDS011;7491;57.750;11.970;2022-07-23T11:25:31;0.50;;;0.50;;
14799;SDS011;7491;57.750;11.970;2022-07-23T11:28:14;0.60;;;0.60;;
14799;SDS011;7491;57.750;11.970;2022-07-23T11:30:43;0.60;;;0.60;;
14799;SDS011;7491;57.750;11.970;2022-07-23T11:33:18;1.13;;;0.60;;
14799;SDS011;7491;57.750;11.970;2022-07-23T11:35:47;0.80;;;0.60;;
14799;SDS011;7491;57.750;11.970;2022-07-23T11:38:16;1.55;;;0.70;;
14799;SDS011;7491;57.750;11.970;2022-07-23T11:40:44;2.78;;;0.77;;
14799;SDS011;7491;57.750;11.970;2022-07-23T11:43:13;1.00;;;0.80;;
14799;SDS011;7491;57.750;11.970;2022-07-23T11:45:40;1.10;;;0.80;;
14799;SDS011;7491;57.750;11.970;2022-07-23T11:48:08;1.30;;;1.20;;
14799;SDS011;7491;57.750;11.970;2022-07-23T11:50:43;2.47;;;1.00;;
14799;SDS011;7491;57.750;11.970;2022-07-23T11:53:09;1.55;;;0.98;;
14799;SDS011;7491;57.750;11.970;2022-07-23T11:55:36;3.83;;;1.00;;
14799;SDS011;7491;57.750;11.970;2022-07-23T11:58:03;2.22;;;1.10;;
14799;SDS011;7491;57.750;11.970;2022-07-23T12:00:30;1.30;;;0.70;;
14799;SDS011;7491;57.750;11.970;2022-07-23T12:02:58;2.08;;;0.90;;
14799;SDS011;7491;57.750;11.970;2022-07-23T12:05:27;3.70;;;0.80;;
14799;SDS011;7491;57.750;11.970;2022-07-23T12:07:57;2.05;;;0.90;;
14799;SDS011;7491;57.750;11.970;2022-07-23T12:10:25;0.90;;;0.90;;
14799;SDS011;7491;57.750;11.970;2022-07-23T12:12:54;0.63;;;0.63;;
14799;SDS011;7491;57.750;11.970;2022-07-23T12:15:23;2.03;;;0.90;;
14799;SDS011;7491;57.750;11.970;2022-07-23T12:17:51;1.73;;;0.90;;
14799;SDS011;7491;57.750;11.970;2022-07-23T12:20:21;0.90;;;0.90;;
14799;SDS011;7491;57.750;11.970;2022-07-23T12:22:50;0.90;;;0.90;;
14799;SDS011;7491;57.750;11.970;2022-07-23T12:25:20;1.38;;;0.95;;
14799;SDS011;7491;57.750;11.970;2022-07-23T12:27:58;1.08;;;1.00;;
14799;SDS011;7491;57.750;11.970;2022-07-23T12:30:26;0.85;;;0.85;;
14799;SDS011;7491;57.750;11.970;2022-07-23T12:32:56;1.15;;;1.00;;
14799;SDS011;7491;57.750;11.970;2022-07-23T12:35:29;2.33;;;1.10;;
14799;SDS011;7491;57.750;11.970;2022-07-23T12:37:59;0.98;;;0.80;;
14799;SDS011;7491;57.750;11.970;2022-07-23T12:40:31;1.20;;;1.10;;
14799;SDS011;7491;57.750;11.970;2022-07-23T12:43:00;1.00;;;1.00;;
14799;SDS011;7491;57.750;11.970;2022-07-23T12:45:41;2.00;;;1.10;;
14799;SDS011;7491;57.750;11.970;2022-07-23T12:48:15;2.25;;;1.20;;
14799;SDS011;7491;57.750;11.970;2022-07-23T12:50:44;0.90;;;0.90;;
14799;SDS011;7491;57.750;11.970;2022-07-23T12:53:16;3.53;;;1.05;;
14799;SDS011;7491;57.750;11.970;2022-07-23T12:55:45;1.13;;;1.13;;
14799;SDS011;7491;57.750;11.970;2022-07-23T12:58:14;1.00;;;1.00;;
14799;SDS011;7491;57.750;11.970;2022-07-23T13:03:32;1.05;;;1.05;;
14799;SDS011;7491;57.750;11.970;2022-07-23T13:06:01;1.30;;;1.27;;
14799;SDS011;7491;57.750;11.970;2022-07-23T13:08:29;2.63;;;1.15;;
14799;SDS011;7491;57.750;11.970;2022-07-23T13:10:59;1.00;;;1.00;;
14799;SDS011;7491;57.750;11.970;2022-07-23T13:13:27;1.00;;;1.00;;
14799;SDS011;7491;57.750;11.970;2022-07-23T13:15:55;1.20;;;1.10;;
14799;SDS011;7491;57.750;11.970;2022-07-23T13:18:23;1.15;;;1.05;;
14799;SDS011;7491;57.750;11.970;2022-07-23T13:20:50;1.20;;;1.10;;
14799;SDS011;7491;57.750;11.970;2022-07-23T13:23:17;1.15;;;1.10;;
14799;SDS011;7491;57.750;11.970;2022-07-23T13:25:44;1.40;;;0.88;;
14799;SDS011;7491;57.750;11.970;2022-07-23T13:28:13;2.72;;;1.35;;
14799;SDS011;7491;57.750;11.970;2022-07-23T13:30:40;1.00;;;1.00;;
14799;SDS011;7491;57.750;11.970;2022-07-23T13:33:07;1.08;;;1.08;;
14799;SDS011;7491;57.750;11.970;2022-07-23T13:35:34;1.13;;;1.05;;
14799;SDS011;7491;57.750;11.970;2022-07-23T13:38:02;1.10;;;1.10;;
14799;SDS011;7491;57.750;11.970;2022-07-23T13:40:29;0.90;;;0.90;;
14799;SDS011;7491;57.750;11.970;2022-07-23T13:42:55;1.58;;;1.10;;
14799;SDS011;7491;57.750;11.970;2022-07-23T13:45:23;1.98;;;1.20;;
14799;SDS011;7491;57.750;11.970;2022-07-23T13:47:50;2.33;;;1.10;;
14799;SDS011;7491;57.750;11.970;2022-07-23T13:50:17;1.10;;;1.10;;
14799;SDS011;7491;57.750;11.970;2022-07-23T13:52:43;1.35;;;1.15;;
14799;SDS011;7491;57.750;11.970;2022-07-23T13:55:10;1.25;;;1.05;;
14799;SDS011;7491;57.750;11.970;2022-07-23T13:57:37;1.30;;;1.20;;
14799;SDS011;7491;57.750;11.970;2022-07-23T14:00:04;1.20;;;1.10;;
14799;SDS011;7491;57.750;11.970;2022-07-23T14:02:34;1.08;;;1.08;;
14799;SDS011;7491;57.750;11.970;2022-07-23T14:05:01;1.20;;;1.10;;
14799;SDS011;7491;57.750;11.970;2022-07-23T14:07:28;0.90;;;0.90;;
14799;SDS011;7491;57.750;11.970;2022-07-23T14:09:55;1.95;;;1.00;;
14799;SDS011;7491;57.750;11.970;2022-07-23T14:12:22;1.45;;;1.20;;
14799;SDS011;7491;57.750;11.970;2022-07-23T14:14:48;1.23;;;1.13;;
14799;SDS011;7491;57.750;11.970;2022-07-23T14:17:15;1.30;;;1.10;;
14799;SDS011;7491;57.750;11.970;2022-07-23T14:19:43;1.30;;;1.20;;
14799;SDS011;7491;57.750;11.970;2022-07-23T14:22:10;1.67;;;1.20;;
14799;SDS011;7491;57.750;11.970;2022-07-23T14:24:37;1.25;;;1.15;;
14799;SDS011;7491;57.750;11.970;2022-07-23T14:27:03;1.10;;;1.00;;
14799;SDS011;7491;57.750;11.970;2022-07-23T14:29:31;1.00;;;1.00;;
14799;SDS011;7491;57.750;11.970;2022-07-23T14:31:58;1.00;;;1.00;;
14799;SDS011;7491;57.750;11.970;2022-07-23T14:34:25;1.65;;;1.10;;
14799;SDS011;7491;57.750;11.970;2022-07-23T14:36:53;1.10;;;1.10;;
14799;SDS011;7491;57.750;11.970;2022-07-23T14:39:20;1.30;;;1.20;;
14799;SDS011;7491;57.750;11.970;2022-07-23T14:41:46;1.38;;;1.20;;
14799;SDS011;7491;57.750;11.970;2022-07-23T14:44:13;1.08;;;1.08;;
14799;SDS011;7491;57.750;11.970;2022-07-23T14:46:40;1.00;;;1.00;;
14799;SDS011;7491;57.750;11.970;2022-07-23T14:49:07;1.00;;;1.00;;
14799;SDS011;7491;57.750;11.970;2022-07-23T14:51:33;1.20;;;1.10;;
14799;SDS011;7491;57.750;11.970;2022-07-23T14:54:02;1.38;;;1.10;;
14799;SDS011;7491;57.750;11.970;2022-07-23T14:56:29;1.20;;;1.20;;
14799;SDS011;7491;57.750;11.970;2022-07-23T14:58:56;1.33;;;1.10;;
14799;SDS011;7491;57.750;11.970;2022-07-23T15:01:23;1.00;;;1.00;;
14799;SDS011;7491;57.750;11.970;2022-07-23T15:03:49;0.82;;;0.82;;
14799;SDS011;7491;57.750;11.970;2022-07-23T15:06:16;1.20;;;1.10;;
14799;SDS011;7491;57.750;11.970;2022-07-23T15:08:43;1.63;;;1.10;;
14799;SDS011;7491;57.750;11.970;2022-07-23T15:11:21;1.23;;;1.02;;
14799;SDS011;7491;57.750;11.970;2022-07-23T15:14:02;2.10;;;1.23;;